Wednesday, November 22, 2017, 4:35 PM GMT
Back to Local

CWNE, North Point, Prince Edward Island

Location: , , Canada Lat: 47.083
Local Time: 4:35 PM GMT (16:35 GMT) Lon: -64
Time Zone: GMT Elev: 49 ft

Show me the last for .
Show Coded

Time T Td Feel RH Dir Speed Gust Alt SLP Vis Weather Sky Remarks
2017-11-22 16:00 39 36 34 89 160° 6 - - 29.98 0 None
2017-11-22 15:00 38 36 35 92 140° 5 - - 30.00 0 None
2017-11-22 14:00 39 37 35 93 220° 6 - - 30.00 0 None
2017-11-22 13:00 37 37 30 100 200° 10 - - 30.01 0 None
2017-11-22 12:00 35 35 26 100 220° 12 - - 30.02 0 None
2017-11-22 11:00 34 34 28 100 180° 7 - - 29.99 0 None
2017-11-22 10:00 35 35 27 100 220° 10 - - 29.99 0 None
2017-11-22 09:00 35 34 27 99 210° 9 - - 29.98 0 None
2017-11-22 08:00 34 34 27 97 200° 9 - - 29.98 0 Peak wind: 19 mph (17 kts) from 220° at 14 min
2017-11-22 07:00 37 36 26 95 200° 14 21 - 29.98 0 Peak wind: 21 mph (19 kts) from 210° at 41 min
2017-11-22 06:00 36 35 25 97 180° 12 18 - 29.97 0 None
2017-11-22 05:00 34 31 26 90 180° 10 - - 29.97 0 None
2017-11-22 04:00 33 31 26 90 160° 8 - - 29.97 0 None
2017-11-22 03:00 34 31 27 87 160° 9 - - 29.97 0 None
2017-11-22 02:00 33 29 25 83 160° 10 - - 29.99 0 None
2017-11-22 01:00 31 28 22 86 160° 12 - - 30.00 0 None
2017-11-22 00:00 31 24 25 77 170° 6 - - 30.03 0 None
2017-11-21 23:00 30 20 23 65 170° 7 - - 30.03 0 None
2017-11-21 22:00 27 15 20 61 180° 6 - - 30.03 0 None
2017-11-21 21:00 25 13 18 58 180° 6 - - 30.04 0 None
2017-11-21 20:00 27 15 18 58 210° 9 - - 30.03 0 Peak wind: 20 mph (18 kts) from 230° at 02 min
2017-11-21 19:00 28 17 15 62 240° 18 - - 30.02 0 Peak wind: 29 mph (26 kts) from 250° at 19 min
2017-11-21 18:00 27 17 10 64 230° 25 32 - 30.02 0 Peak wind: 32 mph (28 kts) from 240° at 57 min
2017-11-21 17:00 25 16 10 67 240° 22 - - 30.00 0 Peak wind: 29 mph (26 kts) from 250° at 39 min

Support USWX by starting your Amazon purchase here.